sensor_id;sensor_type;location;lat;lon;timestamp;P1;durP1;ratioP1;P2;durP2;ratioP2
18726;SDS011;9492;51.888;5.186;2023-01-06T00:01:19;8.00;;;3.90;;
18726;SDS011;9492;51.888;5.186;2023-01-06T00:03:49;5.63;;;3.20;;
18726;SDS011;9492;51.888;5.186;2023-01-06T00:06:15;8.77;;;3.37;;
18726;SDS011;9492;51.888;5.186;2023-01-06T00:08:41;6.03;;;2.83;;
18726;SDS011;9492;51.888;5.186;2023-01-06T00:11:12;8.57;;;3.00;;
18726;SDS011;9492;51.888;5.186;2023-01-06T00:13:38;9.77;;;2.93;;
18726;SDS011;9492;51.888;5.186;2023-01-06T00:18:34;3.33;;;2.20;;
18726;SDS011;9492;51.888;5.186;2023-01-06T00:21:00;6.07;;;2.50;;
18726;SDS011;9492;51.888;5.186;2023-01-06T00:23:26;5.10;;;2.20;;
18726;SDS011;9492;51.888;5.186;2023-01-06T00:25:52;3.87;;;2.20;;
18726;SDS011;9492;51.888;5.186;2023-01-06T00:28:19;5.33;;;1.93;;
18726;SDS011;9492;51.888;5.186;2023-01-06T00:30:45;4.20;;;1.87;;
18726;SDS011;9492;51.888;5.186;2023-01-06T00:33:11;6.07;;;1.90;;
18726;SDS011;9492;51.888;5.186;2023-01-06T00:35:37;5.13;;;2.50;;
18726;SDS011;9492;51.888;5.186;2023-01-06T00:38:03;7.23;;;2.23;;
18726;SDS011;9492;51.888;5.186;2023-01-06T00:40:29;7.83;;;2.30;;
18726;SDS011;9492;51.888;5.186;2023-01-06T00:42:55;4.20;;;1.77;;
18726;SDS011;9492;51.888;5.186;2023-01-06T00:45:21;3.40;;;1.90;;
18726;SDS011;9492;51.888;5.186;2023-01-06T00:47:47;3.13;;;1.80;;
18726;SDS011;9492;51.888;5.186;2023-01-06T00:50:13;2.97;;;2.07;;
18726;SDS011;9492;51.888;5.186;2023-01-06T00:52:39;2.30;;;2.10;;
18726;SDS011;9492;51.888;5.186;2023-01-06T00:55:05;3.33;;;1.97;;
18726;SDS011;9492;51.888;5.186;2023-01-06T00:57:31;3.33;;;1.70;;
18726;SDS011;9492;51.888;5.186;2023-01-06T00:59:57;4.43;;;1.60;;
18726;SDS011;9492;51.888;5.186;2023-01-06T01:02:23;4.60;;;2.03;;
18726;SDS011;9492;51.888;5.186;2023-01-06T01:04:49;3.73;;;2.50;;
18726;SDS011;9492;51.888;5.186;2023-01-06T01:07:15;4.40;;;1.63;;
18726;SDS011;9492;51.888;5.186;2023-01-06T01:09:41;4.57;;;2.30;;
18726;SDS011;9492;51.888;5.186;2023-01-06T01:12:08;3.30;;;1.63;;
18726;SDS011;9492;51.888;5.186;2023-01-06T01:14:36;2.87;;;1.80;;
18726;SDS011;9492;51.888;5.186;2023-01-06T01:17:02;4.77;;;1.90;;
18726;SDS011;9492;51.888;5.186;2023-01-06T01:19:28;5.50;;;2.00;;
18726;SDS011;9492;51.888;5.186;2023-01-06T01:21:54;4.97;;;1.80;;
18726;SDS011;9492;51.888;5.186;2023-01-06T01:24:21;2.17;;;1.87;;
18726;SDS011;9492;51.888;5.186;2023-01-06T01:26:47;3.03;;;2.10;;
18726;SDS011;9492;51.888;5.186;2023-01-06T01:29:13;3.10;;;1.93;;
18726;SDS011;9492;51.888;5.186;2023-01-06T01:31:40;3.53;;;2.30;;
18726;SDS011;9492;51.888;5.186;2023-01-06T01:34:06;4.07;;;2.30;;
18726;SDS011;9492;51.888;5.186;2023-01-06T01:36:33;7.23;;;2.90;;
18726;SDS011;9492;51.888;5.186;2023-01-06T01:38:59;5.17;;;3.10;;
18726;SDS011;9492;51.888;5.186;2023-01-06T01:41:26;4.30;;;3.10;;
18726;SDS011;9492;51.888;5.186;2023-01-06T01:43:56;6.27;;;3.03;;
18726;SDS011;9492;51.888;5.186;2023-01-06T01:49:02;4.83;;;2.83;;
18726;SDS011;9492;51.888;5.186;2023-01-06T01:51:29;3.60;;;2.60;;
18726;SDS011;9492;51.888;5.186;2023-01-06T01:53:58;3.40;;;2.50;;
18726;SDS011;9492;51.888;5.186;2023-01-06T01:56:25;5.83;;;2.80;;
18726;SDS011;9492;51.888;5.186;2023-01-06T01:58:54;4.13;;;2.53;;
18726;SDS011;9492;51.888;5.186;2023-01-06T02:01:22;5.63;;;2.50;;
18726;SDS011;9492;51.888;5.186;2023-01-06T02:03:49;5.67;;;2.50;;
18726;SDS011;9492;51.888;5.186;2023-01-06T02:06:17;2.57;;;2.23;;
18726;SDS011;9492;51.888;5.186;2023-01-06T02:08:46;2.70;;;2.03;;
18726;SDS011;9492;51.888;5.186;2023-01-06T02:11:14;4.10;;;1.97;;
18726;SDS011;9492;51.888;5.186;2023-01-06T02:13:40;4.40;;;2.50;;
18726;SDS011;9492;51.888;5.186;2023-01-06T02:24:43;3.30;;;1.97;;
18726;SDS011;9492;51.888;5.186;2023-01-06T02:27:18;4.60;;;2.50;;
18726;SDS011;9492;51.888;5.186;2023-01-06T02:29:59;3.00;;;1.90;;
18726;SDS011;9492;51.888;5.186;2023-01-06T02:35:08;3.93;;;2.10;;
18726;SDS011;9492;51.888;5.186;2023-01-06T02:45:33;1.77;;;1.60;;
18726;SDS011;9492;51.888;5.186;2023-01-06T02:50:36;2.87;;;1.50;;
18726;SDS011;9492;51.888;5.186;2023-01-06T02:55:34;3.70;;;1.90;;
18726;SDS011;9492;51.888;5.186;2023-01-06T02:58:45;4.53;;;1.70;;
18726;SDS011;9492;51.888;5.186;2023-01-06T03:00:56;4.00;;;1.83;;
18726;SDS011;9492;51.888;5.186;2023-01-06T03:03:24;3.77;;;1.43;;
18726;SDS011;9492;51.888;5.186;2023-01-06T03:05:54;4.13;;;2.00;;
18726;SDS011;9492;51.888;5.186;2023-01-06T03:08:26;2.80;;;1.70;;
18726;SDS011;9492;51.888;5.186;2023-01-06T03:10:53;3.00;;;1.43;;
18726;SDS011;9492;51.888;5.186;2023-01-06T03:13:22;4.60;;;1.80;;
18726;SDS011;9492;51.888;5.186;2023-01-06T03:15:49;2.80;;;1.20;;
18726;SDS011;9492;51.888;5.186;2023-01-06T03:18:15;2.23;;;1.43;;
18726;SDS011;9492;51.888;5.186;2023-01-06T03:20:41;2.77;;;1.70;;
18726;SDS011;9492;51.888;5.186;2023-01-06T03:23:07;3.93;;;1.67;;
18726;SDS011;9492;51.888;5.186;2023-01-06T03:25:36;4.93;;;1.70;;
18726;SDS011;9492;51.888;5.186;2023-01-06T03:28:02;3.80;;;1.57;;
18726;SDS011;9492;51.888;5.186;2023-01-06T03:30:29;5.07;;;1.63;;
18726;SDS011;9492;51.888;5.186;2023-01-06T03:33:04;5.23;;;2.10;;
18726;SDS011;9492;51.888;5.186;2023-01-06T03:40:51;6.20;;;1.70;;
18726;SDS011;9492;51.888;5.186;2023-01-06T03:46:11;3.93;;;1.50;;
18726;SDS011;9492;51.888;5.186;2023-01-06T03:48:46;5.77;;;2.13;;
18726;SDS011;9492;51.888;5.186;2023-01-06T03:56:13;4.43;;;1.40;;
18726;SDS011;9492;51.888;5.186;2023-01-06T03:58:41;3.20;;;1.40;;
18726;SDS011;9492;51.888;5.186;2023-01-06T04:01:09;3.40;;;1.53;;
18726;SDS011;9492;51.888;5.186;2023-01-06T04:03:36;3.53;;;1.60;;
18726;SDS011;9492;51.888;5.186;2023-01-06T04:06:02;3.23;;;1.50;;
18726;SDS011;9492;51.888;5.186;2023-01-06T04:08:28;1.63;;;1.20;;
18726;SDS011;9492;51.888;5.186;2023-01-06T04:10:54;4.73;;;1.27;;
18726;SDS011;9492;51.888;5.186;2023-01-06T04:13:20;3.60;;;1.50;;
18726;SDS011;9492;51.888;5.186;2023-01-06T04:15:46;2.17;;;1.20;;
18726;SDS011;9492;51.888;5.186;2023-01-06T04:18:12;2.17;;;1.20;;
18726;SDS011;9492;51.888;5.186;2023-01-06T04:20:38;3.47;;;1.70;;
18726;SDS011;9492;51.888;5.186;2023-01-06T04:23:04;4.53;;;1.20;;
18726;SDS011;9492;51.888;5.186;2023-01-06T04:25:30;3.90;;;1.30;;
18726;SDS011;9492;51.888;5.186;2023-01-06T04:27:56;2.30;;;1.20;;
18726;SDS011;9492;51.888;5.186;2023-01-06T04:30:22;3.97;;;1.60;;
18726;SDS011;9492;51.888;5.186;2023-01-06T04:32:48;2.90;;;1.40;;
18726;SDS011;9492;51.888;5.186;2023-01-06T04:35:14;1.97;;;1.63;;
18726;SDS011;9492;51.888;5.186;2023-01-06T04:37:40;4.83;;;1.63;;
18726;SDS011;9492;51.888;5.186;2023-01-06T04:40:06;3.37;;;1.67;;
18726;SDS011;9492;51.888;5.186;2023-01-06T04:42:33;2.47;;;1.30;;
18726;SDS011;9492;51.888;5.186;2023-01-06T04:45:19;3.83;;;1.50;;
18726;SDS011;9492;51.888;5.186;2023-01-06T04:47:45;1.73;;;1.57;;
18726;SDS011;9492;51.888;5.186;2023-01-06T04:50:11;3.00;;;1.70;;
18726;SDS011;9492;51.888;5.186;2023-01-06T04:52:37;3.97;;;1.40;;
18726;SDS011;9492;51.888;5.186;2023-01-06T04:55:03;1.07;;;0.97;;
18726;SDS011;9492;51.888;5.186;2023-01-06T04:57:29;2.40;;;1.33;;
18726;SDS011;9492;51.888;5.186;2023-01-06T04:59:56;2.27;;;1.30;;
18726;SDS011;9492;51.888;5.186;2023-01-06T05:02:22;4.20;;;1.43;;
18726;SDS011;9492;51.888;5.186;2023-01-06T05:04:48;2.57;;;1.53;;
18726;SDS011;9492;51.888;5.186;2023-01-06T05:07:14;2.77;;;1.37;;
18726;SDS011;9492;51.888;5.186;2023-01-06T05:09:40;2.60;;;1.33;;
18726;SDS011;9492;51.888;5.186;2023-01-06T05:12:06;1.77;;;1.30;;
18726;SDS011;9492;51.888;5.186;2023-01-06T05:14:32;2.57;;;1.47;;
18726;SDS011;9492;51.888;5.186;2023-01-06T05:16:58;1.83;;;1.33;;
18726;SDS011;9492;51.888;5.186;2023-01-06T05:19:25;1.83;;;1.10;;
18726;SDS011;9492;51.888;5.186;2023-01-06T05:21:51;1.53;;;1.33;;
18726;SDS011;9492;51.888;5.186;2023-01-06T05:24:17;3.33;;;1.40;;
18726;SDS011;9492;51.888;5.186;2023-01-06T05:26:43;2.43;;;1.50;;
18726;SDS011;9492;51.888;5.186;2023-01-06T05:29:11;2.17;;;1.70;;
18726;SDS011;9492;51.888;5.186;2023-01-06T05:31:38;2.93;;;1.10;;
18726;SDS011;9492;51.888;5.186;2023-01-06T05:34:04;1.43;;;1.30;;
18726;SDS011;9492;51.888;5.186;2023-01-06T05:36:30;1.57;;;1.37;;
18726;SDS011;9492;51.888;5.186;2023-01-06T05:38:56;2.60;;;1.33;;
18726;SDS011;9492;51.888;5.186;2023-01-06T05:41:22;4.10;;;1.13;;
18726;SDS011;9492;51.888;5.186;2023-01-06T05:43:48;1.23;;;1.07;;
18726;SDS011;9492;51.888;5.186;2023-01-06T05:46:14;2.53;;;1.10;;
18726;SDS011;9492;51.888;5.186;2023-01-06T05:48:40;2.37;;;1.40;;
18726;SDS011;9492;51.888;5.186;2023-01-06T05:51:08;4.07;;;1.50;;
18726;SDS011;9492;51.888;5.186;2023-01-06T05:53:36;2.13;;;1.17;;
18726;SDS011;9492;51.888;5.186;2023-01-06T05:56:06;1.87;;;1.30;;
18726;SDS011;9492;51.888;5.186;2023-01-06T05:58:32;1.93;;;1.10;;
18726;SDS011;9492;51.888;5.186;2023-01-06T06:00:59;1.10;;;1.10;;
18726;SDS011;9492;51.888;5.186;2023-01-06T06:03:25;1.33;;;1.00;;
18726;SDS011;9492;51.888;5.186;2023-01-06T06:05:51;1.73;;;1.30;;
18726;SDS011;9492;51.888;5.186;2023-01-06T06:08:17;0.97;;;0.97;;
18726;SDS011;9492;51.888;5.186;2023-01-06T06:10:43;1.70;;;1.17;;
18726;SDS011;9492;51.888;5.186;2023-01-06T06:13:09;2.63;;;1.40;;
18726;SDS011;9492;51.888;5.186;2023-01-06T06:15:35;3.23;;;1.37;;
18726;SDS011;9492;51.888;5.186;2023-01-06T06:18:01;2.73;;;1.30;;
18726;SDS011;9492;51.888;5.186;2023-01-06T06:20:27;1.50;;;1.07;;
18726;SDS011;9492;51.888;5.186;2023-01-06T06:22:54;1.27;;;1.17;;
18726;SDS011;9492;51.888;5.186;2023-01-06T06:25:20;4.10;;;1.20;;
18726;SDS011;9492;51.888;5.186;2023-01-06T06:27:46;1.40;;;1.30;;
18726;SDS011;9492;51.888;5.186;2023-01-06T06:30:12;1.57;;;1.47;;
18726;SDS011;9492;51.888;5.186;2023-01-06T06:32:38;1.20;;;1.20;;
18726;SDS011;9492;51.888;5.186;2023-01-06T06:35:04;1.77;;;1.40;;
18726;SDS011;9492;51.888;5.186;2023-01-06T06:37:31;2.30;;;1.30;;
18726;SDS011;9492;51.888;5.186;2023-01-06T06:39:57;5.63;;;1.40;;
18726;SDS011;9492;51.888;5.186;2023-01-06T06:42:23;4.07;;;1.63;;
18726;SDS011;9492;51.888;5.186;2023-01-06T06:44:49;2.10;;;1.37;;
18726;SDS011;9492;51.888;5.186;2023-01-06T06:47:15;2.13;;;1.50;;
18726;SDS011;9492;51.888;5.186;2023-01-06T06:49:41;3.70;;;1.70;;
18726;SDS011;9492;51.888;5.186;2023-01-06T06:52:07;2.50;;;1.77;;
18726;SDS011;9492;51.888;5.186;2023-01-06T06:54:33;3.73;;;1.63;;
18726;SDS011;9492;51.888;5.186;2023-01-06T06:56:59;1.80;;;1.70;;
18726;SDS011;9492;51.888;5.186;2023-01-06T06:59:25;1.97;;;1.43;;
18726;SDS011;9492;51.888;5.186;2023-01-06T07:01:51;2.33;;;1.60;;
18726;SDS011;9492;51.888;5.186;2023-01-06T07:04:17;2.57;;;1.60;;
18726;SDS011;9492;51.888;5.186;2023-01-06T07:06:43;3.57;;;1.80;;
18726;SDS011;9492;51.888;5.186;2023-01-06T07:09:09;2.10;;;1.90;;
18726;SDS011;9492;51.888;5.186;2023-01-06T07:11:35;3.47;;;1.90;;
18726;SDS011;9492;51.888;5.186;2023-01-06T07:14:01;2.13;;;1.83;;
18726;SDS011;9492;51.888;5.186;2023-01-06T07:16:27;1.87;;;1.77;;
18726;SDS011;9492;51.888;5.186;2023-01-06T07:18:54;3.40;;;1.83;;
18726;SDS011;9492;51.888;5.186;2023-01-06T07:21:20;1.90;;;1.80;;
18726;SDS011;9492;51.888;5.186;2023-01-06T07:23:46;1.90;;;1.80;;
18726;SDS011;9492;51.888;5.186;2023-01-06T07:26:12;2.50;;;2.40;;
18726;SDS011;9492;51.888;5.186;2023-01-06T07:28:39;2.50;;;2.30;;
18726;SDS011;9492;51.888;5.186;2023-01-06T07:31:05;1.80;;;1.70;;
18726;SDS011;9492;51.888;5.186;2023-01-06T07:33:31;2.13;;;2.00;;
18726;SDS011;9492;51.888;5.186;2023-01-06T07:35:57;1.97;;;1.60;;
18726;SDS011;9492;51.888;5.186;2023-01-06T07:38:24;2.13;;;1.90;;
18726;SDS011;9492;51.888;5.186;2023-01-06T07:40:50;2.03;;;1.50;;
18726;SDS011;9492;51.888;5.186;2023-01-06T07:43:16;3.83;;;1.60;;
18726;SDS011;9492;51.888;5.186;2023-01-06T07:45:42;1.53;;;1.30;;
18726;SDS011;9492;51.888;5.186;2023-01-06T07:48:10;1.87;;;1.57;;
18726;SDS011;9492;51.888;5.186;2023-01-06T07:50:36;1.27;;;1.20;;
18726;SDS011;9492;51.888;5.186;2023-01-06T07:53:02;1.20;;;1.20;;
18726;SDS011;9492;51.888;5.186;2023-01-06T07:55:29;1.37;;;1.37;;
18726;SDS011;9492;51.888;5.186;2023-01-06T07:57:55;2.87;;;1.20;;
18726;SDS011;9492;51.888;5.186;2023-01-06T08:00:22;1.43;;;1.33;;
18726;SDS011;9492;51.888;5.186;2023-01-06T08:02:48;1.97;;;1.50;;
18726;SDS011;9492;51.888;5.186;2023-01-06T08:05:14;1.77;;;1.10;;
18726;SDS011;9492;51.888;5.186;2023-01-06T08:07:40;2.90;;;1.20;;
18726;SDS011;9492;51.888;5.186;2023-01-06T08:10:06;2.03;;;1.10;;
18726;SDS011;9492;51.888;5.186;2023-01-06T08:12:32;2.07;;;1.30;;
18726;SDS011;9492;51.888;5.186;2023-01-06T08:14:58;1.90;;;1.00;;
18726;SDS011;9492;51.888;5.186;2023-01-06T08:17:25;2.70;;;1.50;;
18726;SDS011;9492;51.888;5.186;2023-01-06T08:19:51;2.70;;;1.07;;
18726;SDS011;9492;51.888;5.186;2023-01-06T08:22:16;1.43;;;0.90;;
18726;SDS011;9492;51.888;5.186;2023-01-06T08:24:42;1.10;;;0.73;;
18726;SDS011;9492;51.888;5.186;2023-01-06T08:27:08;2.40;;;1.20;;
18726;SDS011;9492;51.888;5.186;2023-01-06T08:29:34;1.97;;;1.00;;
18726;SDS011;9492;51.888;5.186;2023-01-06T08:32:00;4.90;;;1.20;;
18726;SDS011;9492;51.888;5.186;2023-01-06T08:34:26;2.83;;;1.20;;
18726;SDS011;9492;51.888;5.186;2023-01-06T08:36:52;2.20;;;1.30;;
18726;SDS011;9492;51.888;5.186;2023-01-06T08:39:18;5.20;;;1.67;;
18726;SDS011;9492;51.888;5.186;2023-01-06T08:41:44;4.90;;;1.20;;
18726;SDS011;9492;51.888;5.186;2023-01-06T08:44:15;1.73;;;1.20;;
18726;SDS011;9492;51.888;5.186;2023-01-06T08:46:41;3.33;;;1.30;;
18726;SDS011;9492;51.888;5.186;2023-01-06T08:49:07;7.60;;;1.83;;
18726;SDS011;9492;51.888;5.186;2023-01-06T08:51:33;1.80;;;1.10;;
18726;SDS011;9492;51.888;5.186;2023-01-06T08:53:59;4.53;;;1.40;;
18726;SDS011;9492;51.888;5.186;2023-01-06T08:56:29;4.20;;;1.20;;
18726;SDS011;9492;51.888;5.186;2023-01-06T08:58:59;4.50;;;1.57;;
18726;SDS011;9492;51.888;5.186;2023-01-06T09:01:30;3.73;;;1.93;;
18726;SDS011;9492;51.888;5.186;2023-01-06T09:03:57;2.23;;;1.30;;
18726;SDS011;9492;51.888;5.186;2023-01-06T09:06:24;2.57;;;1.40;;
18726;SDS011;9492;51.888;5.186;2023-01-06T09:08:50;7.30;;;2.07;;
18726;SDS011;9492;51.888;5.186;2023-01-06T09:11:17;5.40;;;1.43;;
18726;SDS011;9492;51.888;5.186;2023-01-06T09:13:44;5.13;;;1.40;;
18726;SDS011;9492;51.888;5.186;2023-01-06T09:16:10;3.67;;;1.40;;
18726;SDS011;9492;51.888;5.186;2023-01-06T09:18:38;3.40;;;1.60;;
18726;SDS011;9492;51.888;5.186;2023-01-06T09:21:04;3.33;;;1.50;;
18726;SDS011;9492;51.888;5.186;2023-01-06T09:23:30;3.03;;;1.30;;
18726;SDS011;9492;51.888;5.186;2023-01-06T09:25:57;6.27;;;1.83;;
18726;SDS011;9492;51.888;5.186;2023-01-06T09:28:23;4.97;;;1.67;;
18726;SDS011;9492;51.888;5.186;2023-01-06T09:30:49;4.67;;;1.73;;
18726;SDS011;9492;51.888;5.186;2023-01-06T09:33:16;4.37;;;1.50;;
18726;SDS011;9492;51.888;5.186;2023-01-06T09:35:42;7.20;;;2.30;;
18726;SDS011;9492;51.888;5.186;2023-01-06T09:38:09;5.20;;;1.70;;
18726;SDS011;9492;51.888;5.186;2023-01-06T09:41:10;4.60;;;1.40;;
18726;SDS011;9492;51.888;5.186;2023-01-06T09:45:54;5.30;;;1.70;;
18726;SDS011;9492;51.888;5.186;2023-01-06T09:48:22;4.00;;;1.70;;
18726;SDS011;9492;51.888;5.186;2023-01-06T09:50:52;3.07;;;1.40;;
18726;SDS011;9492;51.888;5.186;2023-01-06T09:53:23;5.67;;;1.50;;
18726;SDS011;9492;51.888;5.186;2023-01-06T09:55:57;6.07;;;1.80;;
18726;SDS011;9492;51.888;5.186;2023-01-06T09:58:30;4.50;;;1.50;;
18726;SDS011;9492;51.888;5.186;2023-01-06T10:00:57;4.23;;;1.43;;
18726;SDS011;9492;51.888;5.186;2023-01-06T10:03:25;4.93;;;1.60;;
18726;SDS011;9492;51.888;5.186;2023-01-06T10:16:03;7.83;;;1.50;;
18726;SDS011;9492;51.888;5.186;2023-01-06T10:18:41;6.10;;;1.47;;
18726;SDS011;9492;51.888;5.186;2023-01-06T10:21:16;6.60;;;1.83;;
18726;SDS011;9492;51.888;5.186;2023-01-06T10:24:00;4.27;;;1.20;;
18726;SDS011;9492;51.888;5.186;2023-01-06T10:26:28;5.10;;;1.20;;
18726;SDS011;9492;51.888;5.186;2023-01-06T10:29:02;5.57;;;1.30;;
18726;SDS011;9492;51.888;5.186;2023-01-06T10:31:31;2.60;;;1.53;;
18726;SDS011;9492;51.888;5.186;2023-01-06T10:33:59;3.47;;;1.40;;
18726;SDS011;9492;51.888;5.186;2023-01-06T10:36:37;6.50;;;2.53;;
18726;SDS011;9492;51.888;5.186;2023-01-06T10:39:04;3.40;;;1.20;;
18726;SDS011;9492;51.888;5.186;2023-01-06T10:44:11;3.23;;;1.13;;
18726;SDS011;9492;51.888;5.186;2023-01-06T10:46:38;3.77;;;1.50;;
18726;SDS011;9492;51.888;5.186;2023-01-06T10:49:05;5.27;;;1.70;;
18726;SDS011;9492;51.888;5.186;2023-01-06T10:54:09;4.93;;;1.60;;
18726;SDS011;9492;51.888;5.186;2023-01-06T10:56:37;5.23;;;1.67;;
18726;SDS011;9492;51.888;5.186;2023-01-06T10:59:09;6.33;;;1.93;;
18726;SDS011;9492;51.888;5.186;2023-01-06T11:01:46;9.10;;;1.97;;
18726;SDS011;9492;51.888;5.186;2023-01-06T11:04:13;7.80;;;1.70;;
18726;SDS011;9492;51.888;5.186;2023-01-06T11:06:42;8.70;;;2.00;;
18726;SDS011;9492;51.888;5.186;2023-01-06T11:11:54;9.33;;;1.90;;
18726;SDS011;9492;51.888;5.186;2023-01-06T11:14:24;5.80;;;1.70;;
18726;SDS011;9492;51.888;5.186;2023-01-06T11:16:58;7.70;;;1.67;;
18726;SDS011;9492;51.888;5.186;2023-01-06T11:19:35;4.77;;;1.10;;
18726;SDS011;9492;51.888;5.186;2023-01-06T11:22:01;4.17;;;1.70;;
18726;SDS011;9492;51.888;5.186;2023-01-06T11:24:27;6.57;;;1.40;;
18726;SDS011;9492;51.888;5.186;2023-01-06T11:26:55;6.97;;;1.07;;
18726;SDS011;9492;51.888;5.186;2023-01-06T11:29:29;5.17;;;1.67;;
18726;SDS011;9492;51.888;5.186;2023-01-06T11:31:56;5.27;;;1.53;;
18726;SDS011;9492;51.888;5.186;2023-01-06T11:34:25;4.13;;;1.20;;
18726;SDS011;9492;51.888;5.186;2023-01-06T11:36:53;4.57;;;1.27;;
18726;SDS011;9492;51.888;5.186;2023-01-06T11:39:22;3.40;;;0.93;;
18726;SDS011;9492;51.888;5.186;2023-01-06T11:41:50;2.27;;;1.00;;
18726;SDS011;9492;51.888;5.186;2023-01-06T11:44:18;4.17;;;1.07;;
18726;SDS011;9492;51.888;5.186;2023-01-06T11:46:49;4.07;;;1.17;;
18726;SDS011;9492;51.888;5.186;2023-01-06T11:49:18;3.57;;;1.10;;
18726;SDS011;9492;51.888;5.186;2023-01-06T11:51:49;4.63;;;1.10;;
18726;SDS011;9492;51.888;5.186;2023-01-06T11:54:23;2.83;;;0.80;;
18726;SDS011;9492;51.888;5.186;2023-01-06T11:59:43;2.57;;;1.00;;
18726;SDS011;9492;51.888;5.186;2023-01-06T12:02:12;5.83;;;1.20;;
18726;SDS011;9492;51.888;5.186;2023-01-06T12:04:43;3.83;;;0.80;;
18726;SDS011;9492;51.888;5.186;2023-01-06T12:07:56;3.07;;;0.90;;
18726;SDS011;9492;51.888;5.186;2023-01-06T12:09:59;4.23;;;1.47;;
18726;SDS011;9492;51.888;5.186;2023-01-06T12:12:26;4.10;;;1.20;;
18726;SDS011;9492;51.888;5.186;2023-01-06T12:14:53;4.13;;;1.33;;
18726;SDS011;9492;51.888;5.186;2023-01-06T12:20:14;4.10;;;1.40;;
18726;SDS011;9492;51.888;5.186;2023-01-06T12:25:18;1.90;;;1.03;;
18726;SDS011;9492;51.888;5.186;2023-01-06T12:30:39;2.47;;;1.00;;
18726;SDS011;9492;51.888;5.186;2023-01-06T12:33:05;3.40;;;1.03;;
18726;SDS011;9492;51.888;5.186;2023-01-06T12:35:34;2.33;;;1.00;;
18726;SDS011;9492;51.888;5.186;2023-01-06T12:39:03;3.80;;;1.50;;
18726;SDS011;9492;51.888;5.186;2023-01-06T12:41:45;3.07;;;1.13;;
18726;SDS011;9492;51.888;5.186;2023-01-06T12:43:42;3.17;;;1.40;;
18726;SDS011;9492;51.888;5.186;2023-01-06T12:46:23;7.00;;;1.17;;
18726;SDS011;9492;51.888;5.186;2023-01-06T12:49:02;3.90;;;1.00;;
18726;SDS011;9492;51.888;5.186;2023-01-06T12:51:31;3.03;;;0.90;;
18726;SDS011;9492;51.888;5.186;2023-01-06T12:54:12;3.70;;;1.37;;
18726;SDS011;9492;51.888;5.186;2023-01-06T13:12:40;3.30;;;0.93;;
18726;SDS011;9492;51.888;5.186;2023-01-06T13:15:25;2.07;;;0.97;;
18726;SDS011;9492;51.888;5.186;2023-01-06T13:20:31;3.00;;;1.20;;
18726;SDS011;9492;51.888;5.186;2023-01-06T13:23:14;1.47;;;0.90;;
18726;SDS011;9492;51.888;5.186;2023-01-06T13:36:02;3.10;;;1.30;;
18726;SDS011;9492;51.888;5.186;2023-01-06T13:41:03;6.47;;;1.70;;
18726;SDS011;9492;51.888;5.186;2023-01-06T13:43:31;3.63;;;1.37;;
18726;SDS011;9492;51.888;5.186;2023-01-06T13:46:00;3.57;;;1.27;;
18726;SDS011;9492;51.888;5.186;2023-01-06T13:48:35;3.60;;;1.30;;
18726;SDS011;9492;51.888;5.186;2023-01-06T13:51:02;4.40;;;1.03;;
18726;SDS011;9492;51.888;5.186;2023-01-06T13:53:35;4.23;;;1.33;;
18726;SDS011;9492;51.888;5.186;2023-01-06T13:56:44;1.53;;;0.90;;
18726;SDS011;9492;51.888;5.186;2023-01-06T13:59:15;5.73;;;1.23;;
18726;SDS011;9492;51.888;5.186;2023-01-06T14:01:37;4.83;;;1.47;;
18726;SDS011;9492;51.888;5.186;2023-01-06T14:06:47;3.47;;;1.40;;
18726;SDS011;9492;51.888;5.186;2023-01-06T14:09:16;2.67;;;1.30;;
18726;SDS011;9492;51.888;5.186;2023-01-06T14:11:43;3.80;;;1.33;;
18726;SDS011;9492;51.888;5.186;2023-01-06T14:14:22;5.87;;;1.67;;
18726;SDS011;9492;51.888;5.186;2023-01-06T14:16:51;3.20;;;1.50;;
18726;SDS011;9492;51.888;5.186;2023-01-06T14:19:19;3.90;;;1.10;;
18726;SDS011;9492;51.888;5.186;2023-01-06T14:21:47;5.10;;;1.40;;
18726;SDS011;9492;51.888;5.186;2023-01-06T14:24:18;2.87;;;1.20;;
18726;SDS011;9492;51.888;5.186;2023-01-06T14:32:03;2.60;;;1.13;;
18726;SDS011;9492;51.888;5.186;2023-01-06T14:34:29;4.93;;;1.77;;
18726;SDS011;9492;51.888;5.186;2023-01-06T14:36:56;5.37;;;1.70;;
18726;SDS011;9492;51.888;5.186;2023-01-06T14:39:23;5.93;;;1.77;;
18726;SDS011;9492;51.888;5.186;2023-01-06T14:41:53;3.60;;;1.80;;
18726;SDS011;9492;51.888;5.186;2023-01-06T14:44:43;6.57;;;1.90;;
18726;SDS011;9492;51.888;5.186;2023-01-06T14:47:12;6.83;;;2.20;;
18726;SDS011;9492;51.888;5.186;2023-01-06T14:49:48;7.60;;;2.00;;
18726;SDS011;9492;51.888;5.186;2023-01-06T14:52:19;6.93;;;2.40;;
18726;SDS011;9492;51.888;5.186;2023-01-06T14:54:47;7.83;;;2.30;;
18726;SDS011;9492;51.888;5.186;2023-01-06T14:57:25;7.23;;;2.00;;
18726;SDS011;9492;51.888;5.186;2023-01-06T15:02:33;7.17;;;2.40;;
18726;SDS011;9492;51.888;5.186;2023-01-06T15:04:59;8.33;;;2.70;;
18726;SDS011;9492;51.888;5.186;2023-01-06T15:07:26;5.73;;;2.77;;
18726;SDS011;9492;51.888;5.186;2023-01-06T15:09:52;11.07;;;2.83;;
18726;SDS011;9492;51.888;5.186;2023-01-06T15:12:35;4.50;;;2.40;;
18726;SDS011;9492;51.888;5.186;2023-01-06T15:17:46;8.93;;;2.30;;
18726;SDS011;9492;51.888;5.186;2023-01-06T15:20:13;3.93;;;2.07;;
18726;SDS011;9492;51.888;5.186;2023-01-06T15:22:39;6.30;;;2.87;;
18726;SDS011;9492;51.888;5.186;2023-01-06T15:25:14;5.87;;;2.40;;
18726;SDS011;9492;51.888;5.186;2023-01-06T15:27:46;8.93;;;3.20;;
18726;SDS011;9492;51.888;5.186;2023-01-06T15:30:15;6.70;;;2.90;;
18726;SDS011;9492;51.888;5.186;2023-01-06T15:32:42;6.27;;;2.53;;
18726;SDS011;9492;51.888;5.186;2023-01-06T15:35:11;12.60;;;3.03;;
18726;SDS011;9492;51.888;5.186;2023-01-06T15:37:39;6.87;;;3.20;;
18726;SDS011;9492;51.888;5.186;2023-01-06T15:40:05;5.87;;;2.67;;
18726;SDS011;9492;51.888;5.186;2023-01-06T15:42:32;4.93;;;2.40;;
18726;SDS011;9492;51.888;5.186;2023-01-06T15:45:00;5.93;;;2.87;;
18726;SDS011;9492;51.888;5.186;2023-01-06T15:47:28;4.93;;;2.93;;
18726;SDS011;9492;51.888;5.186;2023-01-06T15:49:55;8.00;;;3.03;;
18726;SDS011;9492;51.888;5.186;2023-01-06T15:54:52;8.43;;;3.20;;
18726;SDS011;9492;51.888;5.186;2023-01-06T15:57:18;7.90;;;3.17;;
18726;SDS011;9492;51.888;5.186;2023-01-06T16:00:18;9.03;;;2.77;;
18726;SDS011;9492;51.888;5.186;2023-01-06T16:02:37;5.40;;;2.77;;
18726;SDS011;9492;51.888;5.186;2023-01-06T16:05:03;8.43;;;2.53;;
18726;SDS011;9492;51.888;5.186;2023-01-06T16:07:32;5.43;;;3.00;;
18726;SDS011;9492;51.888;5.186;2023-01-06T16:09:58;6.70;;;4.53;;
18726;SDS011;9492;51.888;5.186;2023-01-06T16:12:24;6.73;;;2.80;;
18726;SDS011;9492;51.888;5.186;2023-01-06T16:14:51;5.63;;;2.13;;
18726;SDS011;9492;51.888;5.186;2023-01-06T16:22:47;3.37;;;1.90;;
18726;SDS011;9492;51.888;5.186;2023-01-06T16:27:46;4.87;;;1.53;;
18726;SDS011;9492;51.888;5.186;2023-01-06T16:32:41;5.50;;;1.63;;
18726;SDS011;9492;51.888;5.186;2023-01-06T16:35:15;1.53;;;1.10;;
18726;SDS011;9492;51.888;5.186;2023-01-06T16:37:41;4.23;;;1.43;;
18726;SDS011;9492;51.888;5.186;2023-01-06T16:40:08;4.63;;;1.47;;
18726;SDS011;9492;51.888;5.186;2023-01-06T16:42:34;5.03;;;1.60;;
18726;SDS011;9492;51.888;5.186;2023-01-06T16:45:15;2.77;;;1.70;;
18726;SDS011;9492;51.888;5.186;2023-01-06T16:47:42;5.40;;;2.20;;
18726;SDS011;9492;51.888;5.186;2023-01-06T16:50:18;5.53;;;2.60;;
18726;SDS011;9492;51.888;5.186;2023-01-06T16:52:46;2.80;;;2.07;;
18726;SDS011;9492;51.888;5.186;2023-01-06T16:55:14;4.50;;;2.17;;
18726;SDS011;9492;51.888;5.186;2023-01-06T16:57:40;5.60;;;2.03;;
18726;SDS011;9492;51.888;5.186;2023-01-06T17:00:13;3.60;;;1.97;;
18726;SDS011;9492;51.888;5.186;2023-01-06T17:02:40;4.53;;;2.03;;
18726;SDS011;9492;51.888;5.186;2023-01-06T17:05:20;4.40;;;1.80;;
18726;SDS011;9492;51.888;5.186;2023-01-06T17:07:46;3.80;;;1.83;;
18726;SDS011;9492;51.888;5.186;2023-01-06T17:10:14;4.33;;;2.47;;
18726;SDS011;9492;51.888;5.186;2023-01-06T17:12:40;7.47;;;2.30;;
18726;SDS011;9492;51.888;5.186;2023-01-06T17:15:25;4.67;;;2.47;;
18726;SDS011;9492;51.888;5.186;2023-01-06T17:17:51;4.97;;;2.60;;
18726;SDS011;9492;51.888;5.186;2023-01-06T17:20:17;4.70;;;2.07;;